Time;durP1;ratioP1;P1;durP2;ratioP2;P2;SDS_P1;SDS_P2;PMS_P1;PMS_P2;Temp;Humidity;BMP_temperature;BMP_pressure;BME280_temperature;BME280_humidity;BME280_pressure;Samples;Min_cycle;Max_cycle;Signal;HPM_P1;HPM_P2
2021/12/25 00:00:21;;;;;;;18.55;15.13;;;12.70;96.70;;;;;;5113911;27;20122;-76
2021/12/25 00:02:49;;;;;;;17.98;15.85;;;12.70;96.70;;;;;;5114838;27;20055;-76
2021/12/25 00:05:18;;;;;;;17.98;14.75;;;12.70;96.70;;;;;;5095373;27;20046;-76
2021/12/25 00:07:46;;;;;;;17.45;14.52;;;12.80;96.70;;;;;;5093457;27;20135;-76
2021/12/25 00:10:14;;;;;;;16.90;14.18;;;12.80;96.70;;;;;;5110598;27;20576;-77
2021/12/25 00:12:43;;;;;;;16.50;14.43;;;12.80;96.70;;;;;;5114870;27;20062;-77
2021/12/25 00:15:11;;;;;;;17.92;14.00;;;12.80;96.70;;;;;;5095979;27;20478;-76
2021/12/25 00:17:39;;;;;;;15.88;13.52;;;12.80;96.70;;;;;;5114880;27;20070;-76
2021/12/25 00:20:08;;;;;;;15.63;13.00;;;12.80;96.70;;;;;;5113409;27;20036;-76
2021/12/25 00:22:37;;;;;;;15.10;12.77;;;12.80;96.70;;;;;;5116236;27;20050;-77
2021/12/25 00:25:06;;;;;;;15.68;13.32;;;12.80;96.70;;;;;;5117608;27;20438;-76
2021/12/25 00:30:23;;;;;;;13.50;12.18;;;12.80;96.70;;;;;;5110442;27;20515;-76
2021/12/25 00:32:57;;;;;;;14.13;12.00;;;12.80;96.70;;;;;;5103227;27;20389;-77
2021/12/25 00:35:25;;;;;;;15.02;12.05;;;12.70;96.70;;;;;;5111088;27;20134;-77
2021/12/25 00:37:53;;;;;;;13.55;12.15;;;12.80;96.70;;;;;;5116262;27;20071;-76
2021/12/25 00:40:22;;;;;;;13.35;11.95;;;12.80;96.70;;;;;;5116753;27;20047;-76
2021/12/25 00:42:50;;;;;;;14.50;12.15;;;12.80;96.70;;;;;;5112482;27;20918;-76
2021/12/25 00:45:20;;;;;;;12.60;11.30;;;12.80;96.70;;;;;;5113553;27;20093;-77
2021/12/25 00:47:48;;;;;;;15.13;12.23;;;12.80;96.70;;;;;;5111540;27;20070;-77
2021/12/25 00:50:16;;;;;;;13.98;12.65;;;12.80;96.70;;;;;;5110470;27;20039;-76
2021/12/25 00:52:44;;;;;;;14.43;12.93;;;12.80;96.70;;;;;;5140548;27;20509;-77
2021/12/25 00:55:12;;;;;;;16.77;13.43;;;12.80;96.70;;;;;;5113725;27;20063;-77
2021/12/25 00:57:40;;;;;;;15.35;13.25;;;12.80;96.70;;;;;;5112616;27;20050;-78
2021/12/25 01:00:12;;;;;;;15.25;13.07;;;12.80;96.70;;;;;;5117351;27;20102;-77
2021/12/25 01:02:44;;;;;;;15.70;12.38;;;12.80;96.70;;;;;;5115819;27;20050;-76
2021/12/25 01:05:15;;;;;;;14.60;11.85;;;12.80;96.70;;;;;;5093203;27;20531;-77
2021/12/25 01:07:43;;;;;;;13.38;11.30;;;12.80;96.70;;;;;;5113216;27;20036;-78
2021/12/25 01:10:18;;;;;;;13.25;10.85;;;12.80;96.70;;;;;;5118786;27;20077;-76
2021/12/25 01:15:41;;;;;;;13.77;11.57;;;12.90;96.70;;;;;;5119285;27;20035;-77
2021/12/25 01:34:50;;;;;;;10.68;7.55;;;12.90;96.70;;;;;;5110256;27;20557;-77
2021/12/25 01:49:35;;;;;;;9.07;5.68;;;13.00;96.70;;;;;;5112922;27;20402;-77
2021/12/25 01:52:04;;;;;;;8.60;4.30;;;13.00;96.70;;;;;;5112678;27;20046;-76
2021/12/25 01:54:33;;;;;;;6.65;3.65;;;13.00;96.70;;;;;;5116094;27;20515;-78
2021/12/25 01:57:01;;;;;;;8.55;5.13;;;13.00;96.70;;;;;;5107458;27;20504;-77
2021/12/25 01:59:29;;;;;;;10.30;6.22;;;13.00;96.70;;;;;;5097114;27;20473;-78
2021/12/25 02:01:58;;;;;;;7.60;4.70;;;13.00;96.70;;;;;;5108675;27;20039;-77
2021/12/25 02:04:26;;;;;;;11.35;8.05;;;13.00;96.70;;;;;;5093907;27;20043;-77
2021/12/25 02:06:55;;;;;;;14.73;8.38;;;13.00;96.70;;;;;;5110951;27;20079;-77
2021/12/25 02:09:24;;;;;;;10.07;5.25;;;13.00;96.70;;;;;;5098597;27;20043;-77
2021/12/25 02:11:52;;;;;;;9.55;5.50;;;13.00;96.70;;;;;;5112336;27;20051;-77
2021/12/25 02:14:21;;;;;;;9.70;4.93;;;13.00;96.70;;;;;;5118043;27;20983;-77
2021/12/25 02:17:05;;;;;;;7.82;3.30;;;13.00;96.70;;;;;;5101752;28;20436;-77
2021/12/25 02:19:44;;;;;;;7.43;4.50;;;13.00;96.70;;;;;;5108819;27;20620;-77
2021/12/25 02:22:13;;;;;;;6.32;3.10;;;13.00;96.70;;;;;;5113819;27;20090;-78
2021/12/25 02:24:42;;;;;;;5.28;3.30;;;13.00;96.70;;;;;;5119856;27;20149;-77
2021/12/25 02:27:12;;;;;;;7.40;4.13;;;13.00;96.70;;;;;;5116419;27;20062;-77
2021/12/25 02:29:41;;;;;;;6.82;4.13;;;13.00;96.70;;;;;;5109335;27;20032;-77
2021/12/25 02:32:10;;;;;;;5.68;4.47;;;13.00;96.70;;;;;;5109675;27;20054;-77
2021/12/25 02:34:44;;;;;;;6.00;4.57;;;13.00;96.70;;;;;;5109585;27;20047;-78
2021/12/25 02:37:13;;;;;;;6.72;4.50;;;12.90;96.70;;;;;;5109438;27;20142;-78
2021/12/25 02:39:43;;;;;;;6.00;4.00;;;12.90;96.70;;;;;;5112533;27;20436;-76
2021/12/25 02:42:11;;;;;;;6.43;4.60;;;12.90;96.70;;;;;;5110043;28;20053;-75
2021/12/25 02:44:41;;;;;;;6.18;4.78;;;12.90;96.70;;;;;;5094756;28;20047;-76
2021/12/25 02:47:15;;;;;;;4.90;3.88;;;12.90;96.70;;;;;;5115383;28;20055;-75
2021/12/25 02:49:47;;;;;;;4.72;4.25;;;12.90;96.70;;;;;;5112710;28;20036;-76
2021/12/25 02:52:18;;;;;;;7.53;5.40;;;12.90;96.70;;;;;;5097155;28;20050;-75
2021/12/25 02:54:46;;;;;;;5.95;5.35;;;12.90;96.70;;;;;;5112922;28;20085;-75
2021/12/25 02:57:16;;;;;;;6.75;5.22;;;12.90;96.70;;;;;;5112218;28;20092;-74
2021/12/25 02:59:44;;;;;;;7.07;5.78;;;12.90;96.70;;;;;;5111309;28;20050;-75
2021/12/25 03:02:15;;;;;;;7.57;5.60;;;12.90;96.70;;;;;;5116373;27;20032;-75
2021/12/25 03:04:48;;;;;;;8.52;5.93;;;12.90;96.70;;;;;;5108223;27;20054;-75
2021/12/25 03:07:18;;;;;;;5.95;4.90;;;12.90;96.70;;;;;;5120204;27;20051;-75
2021/12/25 03:09:50;;;;;;;5.30;4.80;;;12.90;96.70;;;;;;5115810;27;20305;-76
2021/12/25 03:12:27;;;;;;;5.03;4.53;;;12.90;96.70;;;;;;5119268;27;20061;-75
2021/12/25 03:15:15;;;;;;;6.15;5.07;;;12.90;96.70;;;;;;5114805;27;20591;-75
2021/12/25 03:17:43;;;;;;;;;;;12.90;96.70;;;;;;5119709;27;20043;-75
2021/12/25 03:20:12;;;;;;;7.35;5.00;;;12.90;96.70;;;;;;5113165;27;19976;-75
2021/12/25 03:22:42;;;;;;;6.35;4.82;;;12.90;96.70;;;;;;5120739;27;20115;-75
2021/12/25 03:25:12;;;;;;;6.15;5.00;;;12.90;96.70;;;;;;5119318;27;20055;-75
2021/12/25 03:27:43;;;;;;;6.07;5.10;;;12.80;96.70;;;;;;5120684;27;20055;-75
2021/12/25 03:30:17;;;;;;;7.00;5.88;;;12.80;96.70;;;;;;5116822;27;20047;-76
2021/12/25 03:32:46;;;;;;;8.00;6.30;;;12.80;96.70;;;;;;5113473;27;20088;-75
2021/12/25 03:35:14;;;;;;;7.10;5.85;;;12.80;96.70;;;;;;5117959;27;20042;-75
2021/12/25 03:37:45;;;;;;;6.72;5.97;;;12.80;96.70;;;;;;5099675;27;20048;-76
2021/12/25 03:40:14;;;;;;;8.18;6.85;;;12.80;96.70;;;;;;5116138;27;20059;-76
2021/12/25 03:42:43;;;;;;;11.88;6.40;;;12.80;96.70;;;;;;5110391;27;20059;-75
2021/12/25 03:45:12;;;;;;;12.93;6.53;;;12.80;96.70;;;;;;5116843;27;20524;-75
2021/12/25 03:47:41;;;;;;;7.97;5.60;;;12.80;96.70;;;;;;5117572;27;20054;-75
2021/12/25 03:53:23;;;;;;;;;;;12.80;96.70;;;;;;5114599;27;20039;-75
2021/12/25 03:58:39;;;;;;;5.65;4.30;;;12.70;96.70;;;;;;5111548;27;20060;-76
2021/12/25 04:01:28;;;;;;;4.68;4.13;;;12.70;96.70;;;;;;5120450;27;20058;-75
2021/12/25 04:07:05;;;;;;;4.32;3.53;;;12.70;96.70;;;;;;5077316;28;20051;-75
2021/12/25 04:09:37;;;;;;;4.68;3.65;;;12.70;96.70;;;;;;5075449;28;20393;-75
2021/12/25 04:12:07;;;;;;;4.88;3.28;;;12.70;96.70;;;;;;5075219;28;20596;-75
2021/12/25 04:14:37;;;;;;;5.47;3.42;;;12.60;96.70;;;;;;5090028;28;20051;-76
2021/12/25 04:17:05;;;;;;;4.35;3.15;;;12.60;96.70;;;;;;5070717;28;20079;-76
2021/12/25 04:19:36;;;;;;;6.15;3.45;;;12.60;96.70;;;;;;5073743;28;20051;-76
2021/12/25 04:22:11;;;;;;;5.32;3.33;;;12.60;96.70;;;;;;5077329;28;20056;-76
2021/12/25 04:24:43;;;;;;;3.67;3.03;;;12.70;96.70;;;;;;5074573;28;20054;-76
2021/12/25 04:27:14;;;;;;;3.63;3.28;;;12.70;96.70;;;;;;5087390;28;20094;-76
2021/12/25 04:30:00;;;;;;;3.92;3.53;;;12.70;96.70;;;;;;5088192;28;20058;-76
2021/12/25 04:33:06;;;;;;;6.20;3.75;;;12.70;96.70;;;;;;5073646;28;20044;-76
2021/12/25 05:03:43;;;;;;;4.95;3.80;;;12.70;96.70;;;;;;5113518;27;20155;-76
2021/12/25 05:06:24;;;;;;;4.68;3.90;;;12.70;96.70;;;;;;5098791;27;20111;-76
2021/12/25 05:08:54;;;;;;;7.18;4.00;;;12.60;96.70;;;;;;5110253;27;20413;-76
2021/12/25 05:11:23;;;;;;;6.80;4.25;;;12.60;96.70;;;;;;5112317;27;20495;-76
2021/12/25 05:13:56;;;;;;;4.30;3.65;;;12.70;96.70;;;;;;5115725;27;20504;-75
2021/12/25 05:16:44;;;;;;;5.72;3.85;;;12.60;96.70;;;;;;5114115;27;20039;-75
2021/12/25 05:19:14;;;;;;;5.07;4.05;;;12.60;96.70;;;;;;5108400;27;20073;-76
2021/12/25 05:21:42;;;;;;;5.93;4.15;;;12.60;96.70;;;;;;5096333;28;20493;-75
2021/12/25 05:24:11;;;;;;;4.93;3.97;;;12.60;96.70;;;;;;5111602;27;20047;-76
2021/12/25 05:26:47;;;;;;;5.10;4.43;;;12.60;96.70;;;;;;5120067;27;20039;-76
2021/12/25 05:29:23;;;;;;;5.82;4.70;;;12.60;96.70;;;;;;5119065;27;20151;-75
2021/12/25 05:31:54;;;;;;;;;;;12.60;96.70;;;;;;5142994;27;20047;-75
2021/12/25 05:34:35;;;;;;;7.18;4.90;;;12.60;96.70;;;;;;5109985;27;19923;-75
2021/12/25 05:37:23;;;;;;;6.65;5.15;;;12.60;96.70;;;;;;5095643;27;20043;-75
2021/12/25 05:40:01;;;;;;;7.40;5.18;;;12.60;96.70;;;;;;5114322;27;20044;-75
2021/12/25 05:42:34;;;;;;;5.63;4.90;;;12.60;96.70;;;;;;5107069;27;20456;-76
2021/12/25 05:45:05;;;;;;;5.93;5.30;;;12.60;96.70;;;;;;5097749;27;20044;-76
2021/12/25 05:47:43;;;;;;;7.95;4.85;;;12.60;96.70;;;;;;5112646;27;20036;-78
2021/12/25 05:50:30;;;;;;;6.35;5.18;;;12.60;96.70;;;;;;5115169;27;20124;-76
2021/12/25 05:53:18;;;;;;;8.02;5.35;;;12.60;96.70;;;;;;5093717;27;20092;-76
2021/12/25 05:56:05;;;;;;;6.07;5.10;;;12.60;96.70;;;;;;5115703;27;20132;-76
2021/12/25 05:58:58;;;;;;;6.97;5.78;;;12.50;96.70;;;;;;5113603;27;20071;-76
2021/12/25 06:01:39;;;;;;;7.03;5.93;;;12.50;96.70;;;;;;5106921;27;20096;-76
2021/12/25 06:04:09;;;;;;;8.55;6.20;;;12.50;96.70;;;;;;5111586;27;20078;-77
2021/12/25 06:06:37;;;;;;;6.32;5.72;;;12.50;96.70;;;;;;5113290;27;20043;-76
2021/12/25 06:09:09;;;;;;;6.95;5.53;;;12.50;96.70;;;;;;5093760;27;20097;-76
2021/12/25 06:11:38;;;;;;;5.93;5.35;;;12.60;96.70;;;;;;5109323;27;20047;-76
2021/12/25 06:14:10;;;;;;;7.10;5.88;;;12.60;96.70;;;;;;5100487;27;20042;-77
2021/12/25 06:16:56;;;;;;;8.40;6.03;;;12.60;96.70;;;;;;5116508;27;20352;-76
2021/12/25 06:19:35;;;;;;;6.47;5.50;;;12.60;96.70;;;;;;5110017;27;20097;-75
2021/12/25 06:22:26;;;;;;;8.43;7.60;;;12.60;96.70;;;;;;5116545;27;20508;-76
2021/12/25 06:25:08;;;;;;;7.05;6.35;;;12.60;96.70;;;;;;5101317;27;20057;-76
2021/12/25 06:27:48;;;;;;;11.75;9.15;;;12.60;96.70;;;;;;5110952;27;20656;-77
2021/12/25 06:30:44;;;;;;;12.63;9.30;;;12.60;96.70;;;;;;5099154;27;20127;-76
2021/12/25 06:33:36;;;;;;;8.80;7.57;;;12.60;96.70;;;;;;5104133;27;20062;-77
2021/12/25 06:36:22;;;;;;;7.95;6.53;;;12.60;96.70;;;;;;5098129;27;20051;-77
2021/12/25 06:39:14;;;;;;;8.57;6.88;;;12.60;96.70;;;;;;5116709;27;20427;-76
2021/12/25 06:41:52;;;;;;;7.07;6.30;;;12.60;96.70;;;;;;5111360;27;20096;-77
2021/12/25 06:44:23;;;;;;;9.85;6.97;;;12.60;96.70;;;;;;5110735;28;20074;-76
2021/12/25 06:46:54;;;;;;;7.47;6.78;;;12.60;96.70;;;;;;5112348;28;20253;-76
2021/12/25 06:49:25;;;;;;;8.25;7.07;;;12.60;96.70;;;;;;5116846;28;20178;-77
2021/12/25 06:52:16;;;;;;;7.88;7.07;;;12.60;96.70;;;;;;5107532;28;20047;-77
2021/12/25 06:55:10;;;;;;;10.07;7.32;;;12.60;96.70;;;;;;5090718;28;20036;-77
2021/12/25 06:57:51;;;;;;;8.52;7.55;;;12.60;96.70;;;;;;5093072;28;20048;-77
2021/12/25 07:00:20;;;;;;;9.95;7.82;;;12.60;96.70;;;;;;5097142;28;20136;-77
2021/12/25 07:02:50;;;;;;;8.15;7.10;;;12.60;96.70;;;;;;5094899;28;20408;-76
2021/12/25 07:05:38;;;;;;;7.82;7.03;;;12.60;96.70;;;;;;5093936;28;20636;-76
2021/12/25 07:08:26;;;;;;;8.75;7.05;;;12.60;96.70;;;;;;5056239;28;20044;-76
2021/12/25 07:11:14;;;;;;;7.00;6.30;;;12.60;96.70;;;;;;5074652;28;20044;-76
2021/12/25 07:14:21;;;;;;;8.13;6.45;;;12.60;96.70;;;;;;5045363;28;20506;-75
2021/12/25 07:16:49;;;;;;;8.25;7.45;;;12.70;96.70;;;;;;5051974;28;20053;-77
2021/12/25 07:19:36;;;;;;;;;;;12.70;96.70;;;;;;5075284;28;20104;-77
2021/12/25 07:22:08;;;;;;;7.75;6.95;;;12.70;96.70;;;;;;5092819;28;20339;-77
2021/12/25 07:25:02;;;;;;;11.18;7.75;;;12.60;96.70;;;;;;5061170;28;20500;-76
2021/12/25 07:27:31;;;;;;;11.20;7.97;;;12.70;96.70;;;;;;5080360;28;20424;-77
2021/12/25 07:29:59;;;;;;;9.75;8.35;;;12.70;96.70;;;;;;5078594;28;20044;-76
2021/12/25 07:32:27;;;;;;;9.77;8.35;;;12.70;96.70;;;;;;5095266;28;20412;-76
2021/12/25 07:34:55;;;;;;;11.00;9.48;;;12.70;96.70;;;;;;5109011;28;20042;-77
2021/12/25 07:37:24;;;;;;;10.27;8.82;;;12.70;96.70;;;;;;5112989;28;20062;-76
2021/12/25 07:39:52;;;;;;;8.70;7.90;;;12.70;96.70;;;;;;5113210;28;20039;-77
2021/12/25 07:42:20;;;;;;;9.95;7.45;;;12.70;96.70;;;;;;5115436;28;20052;-77
2021/12/25 07:45:07;;;;;;;10.50;7.15;;;12.70;96.70;;;;;;5101274;28;20184;-77
2021/12/25 07:47:40;;;;;;;8.93;7.28;;;12.70;96.70;;;;;;5092764;28;20043;-76
2021/12/25 07:50:09;;;;;;;9.77;7.53;;;12.70;96.70;;;;;;5097950;27;20067;-76
2021/12/25 07:52:40;;;;;;;11.25;9.18;;;12.70;96.70;;;;;;5119747;27;20108;-76
2021/12/25 07:55:09;;;;;;;11.43;9.75;;;12.70;96.70;;;;;;5119733;27;20043;-76
2021/12/25 07:57:37;;;;;;;10.93;9.60;;;12.70;96.70;;;;;;5110201;27;20042;-77
2021/12/25 08:00:08;;;;;;;10.50;9.40;;;12.70;96.70;;;;;;5099596;27;20051;-76
2021/12/25 08:02:39;;;;;;;9.57;8.60;;;12.70;96.70;;;;;;5117659;27;20053;-77
2021/12/25 08:05:08;;;;;;;9.10;7.57;;;12.70;96.70;;;;;;5118899;27;20465;-77
2021/12/25 08:07:38;;;;;;;10.10;9.02;;;12.70;96.70;;;;;;5116544;27;20031;-77
2021/12/25 08:10:13;;;;;;;12.73;11.13;;;12.70;96.70;;;;;;5117227;27;20043;-77
2021/12/25 08:12:44;;;;;;;20.27;16.80;;;12.80;96.70;;;;;;5112658;27;20040;-76
2021/12/25 08:15:15;;;;;;;20.75;16.25;;;12.80;96.70;;;;;;5116211;27;20035;-76
2021/12/25 08:17:44;;;;;;;15.23;12.38;;;12.80;96.70;;;;;;5119239;27;20548;-77
2021/12/25 08:20:28;;;;;;;13.45;10.38;;;12.80;96.70;;;;;;5113672;27;20054;-76
2021/12/25 08:23:16;;;;;;;10.75;9.63;;;12.80;96.70;;;;;;5117767;27;20127;-76
2021/12/25 08:26:04;;;;;;;10.68;9.57;;;12.80;96.70;;;;;;5112004;27;20081;-76
2021/12/25 08:28:55;;;;;;;9.63;8.48;;;12.80;96.70;;;;;;5111423;27;20426;-76
2021/12/25 08:31:49;;;;;;;9.93;8.77;;;12.90;96.70;;;;;;5105857;27;20516;-76
2021/12/25 08:34:38;;;;;;;9.40;8.23;;;12.90;96.70;;;;;;5115949;27;20137;-76
2021/12/25 08:37:12;;;;;;;9.02;8.13;;;12.90;96.70;;;;;;5132730;27;20043;-77
2021/12/25 08:39:42;;;;;;;10.20;8.23;;;13.00;96.70;;;;;;5112402;27;20444;-78
2021/12/25 08:42:10;;;;;;;8.13;7.28;;;13.00;96.70;;;;;;5111290;27;20050;-76
2021/12/25 08:44:51;;;;;;;7.95;7.15;;;13.00;96.70;;;;;;5113577;27;20512;-76
2021/12/25 08:47:23;;;;;;;9.98;7.63;;;13.00;96.70;;;;;;5113912;27;20496;-77
2021/12/25 08:49:51;;;;;;;9.13;7.15;;;13.00;96.70;;;;;;5113398;27;20036;-75
2021/12/25 08:52:21;;;;;;;8.68;7.25;;;13.10;96.70;;;;;;5113347;27;20542;-76
2021/12/25 08:54:51;;;;;;;9.48;6.50;;;13.10;96.70;;;;;;5100470;27;20058;-76
2021/12/25 08:57:25;;;;;;;9.63;7.38;;;13.10;96.70;;;;;;5112974;27;20050;-74
2021/12/25 08:59:56;;;;;;;10.15;7.10;;;13.10;96.70;;;;;;5111482;27;20036;-76
2021/12/25 09:02:24;;;;;;;11.07;7.43;;;13.20;96.70;;;;;;5115491;27;20044;-75
2021/12/25 09:04:52;;;;;;;11.02;8.50;;;13.30;96.70;;;;;;5107269;27;20043;-76
2021/12/25 09:07:21;;;;;;;8.68;7.35;;;13.30;96.70;;;;;;5113647;27;20071;-77
2021/12/25 09:09:51;;;;;;;8.32;7.22;;;13.40;96.70;;;;;;5112020;27;20091;-77
2021/12/25 09:12:21;;;;;;;9.13;8.05;;;13.40;96.70;;;;;;5116119;27;20043;-76
2021/12/25 09:14:49;;;;;;;34.25;23.00;;;13.40;96.70;;;;;;5114309;27;20088;-77
2021/12/25 09:17:17;;;;;;;67.60;44.67;;;13.50;96.70;;;;;;5112663;27;20559;-78
2021/12/25 09:19:45;;;;;;;26.98;20.20;;;13.50;96.70;;;;;;5110786;27;20067;-80
2021/12/25 09:22:14;;;;;;;16.52;12.82;;;13.50;96.70;;;;;;5110812;27;20597;-76
2021/12/25 09:24:43;;;;;;;26.17;20.02;;;13.60;96.70;;;;;;5113699;27;20046;-77
2021/12/25 09:27:12;;;;;;;20.40;15.05;;;13.60;96.70;;;;;;5111644;27;20040;-76
2021/12/25 09:29:40;;;;;;;15.38;12.77;;;13.60;96.70;;;;;;5109190;27;20126;-75
2021/12/25 09:32:08;;;;;;;17.85;12.50;;;13.60;96.70;;;;;;5114536;27;20039;-76
2021/12/25 09:34:36;;;;;;;17.13;11.93;;;13.60;96.70;;;;;;5114072;27;20047;-76
2021/12/25 09:37:06;;;;;;;11.70;10.32;;;13.60;96.70;;;;;;5115316;27;20039;-76
2021/12/25 09:39:35;;;;;;;14.07;10.63;;;13.60;96.70;;;;;;5109453;27;20381;-75
2021/12/25 09:42:03;;;;;;;17.45;12.20;;;13.60;96.70;;;;;;5108236;27;20618;-75
2021/12/25 09:44:33;;;;;;;15.30;12.35;;;13.60;96.70;;;;;;5115757;27;20043;-74
2021/12/25 09:47:02;;;;;;;15.23;11.60;;;13.70;96.70;;;;;;5112015;27;20047;-75
2021/12/25 09:49:30;;;;;;;13.25;10.93;;;13.70;96.70;;;;;;5107386;27;20046;-76
2021/12/25 09:51:59;;;;;;;13.85;11.60;;;13.70;96.70;;;;;;5093279;27;20051;-75
2021/12/25 09:54:29;;;;;;;12.82;11.52;;;13.70;96.70;;;;;;5112001;27;20108;-76
2021/12/25 09:56:58;;;;;;;15.88;11.93;;;13.70;96.70;;;;;;5111151;27;20046;-75
2021/12/25 09:59:27;;;;;;;14.95;11.93;;;13.70;96.70;;;;;;5119129;27;20901;-74
2021/12/25 10:02:00;;;;;;;15.98;12.68;;;13.70;96.70;;;;;;5092094;27;20074;-75
2021/12/25 10:04:35;;;;;;;16.77;14.75;;;13.70;96.70;;;;;;5112682;27;20495;-75
2021/12/25 10:07:23;;;;;;;18.73;16.38;;;13.70;96.70;;;;;;5110437;27;20389;-75
2021/12/25 10:10:01;;;;;;;19.10;16.45;;;13.70;96.70;;;;;;5115245;27;20154;-75
2021/12/25 10:12:34;;;;;;;19.08;16.60;;;13.70;96.70;;;;;;5116880;27;20492;-75
2021/12/25 10:15:05;;;;;;;22.25;17.88;;;13.70;96.70;;;;;;5111099;27;20043;-75
2021/12/25 10:17:44;;;;;;;24.27;18.73;;;13.70;96.70;;;;;;5110045;27;20031;-74
2021/12/25 10:20:15;;;;;;;23.63;19.65;;;13.70;96.70;;;;;;5108821;27;20035;-75
2021/12/25 10:23:04;;;;;;;23.05;17.95;;;13.70;96.70;;;;;;5104954;27;20600;-75
2021/12/25 10:25:38;;;;;;;23.50;18.45;;;13.70;96.70;;;;;;5111762;27;20050;-75
2021/12/25 10:28:09;;;;;;;23.83;20.73;;;13.70;96.70;;;;;;5112562;27;20788;-75
2021/12/25 10:30:51;;;;;;;23.60;20.98;;;13.70;96.70;;;;;;5075598;27;20754;-75
2021/12/25 10:33:31;;;;;;;26.40;21.35;;;13.70;96.70;;;;;;5096347;27;20031;-75
2021/12/25 10:36:02;;;;;;;28.20;22.63;;;13.80;96.70;;;;;;5103513;27;20112;-74
2021/12/25 10:38:31;;;;;;;22.38;19.17;;;13.70;96.70;;;;;;5110978;27;20035;-76
2021/12/25 10:41:20;;;;;;;24.80;18.52;;;13.70;96.70;;;;;;5112858;27;20654;-76
2021/12/25 10:43:52;;;;;;;20.05;16.98;;;13.70;96.70;;;;;;5100758;28;20051;-76
2021/12/25 10:46:21;;;;;;;21.02;16.98;;;13.70;96.70;;;;;;5109769;28;20042;-76
2021/12/25 10:48:51;;;;;;;21.13;16.83;;;13.70;96.70;;;;;;5114314;28;20050;-78
2021/12/25 10:51:29;;;;;;;17.98;15.82;;;13.70;96.70;;;;;;5113100;28;20050;-77
2021/12/25 10:53:59;;;;;;;21.00;16.85;;;13.70;96.70;;;;;;5113633;28;20063;-76
2021/12/25 10:56:35;;;;;;;20.52;17.08;;;13.70;96.70;;;;;;5114706;28;20044;-76
2021/12/25 10:59:07;;;;;;;19.33;15.48;;;13.70;96.70;;;;;;5111316;28;20258;-77
2021/12/25 11:01:38;;;;;;;20.73;15.98;;;13.70;96.70;;;;;;5090705;28;20378;-76
2021/12/25 11:04:25;;;;;;;20.48;16.15;;;13.70;96.70;;;;;;5099044;28;20505;-77
2021/12/25 11:06:54;;;;;;;20.40;16.13;;;13.70;96.70;;;;;;5110369;28;20054;-77
2021/12/25 11:09:23;;;;;;;23.35;20.85;;;13.70;96.70;;;;;;5111775;28;20075;-76
2021/12/25 11:12:15;;;;;;;23.73;19.70;;;13.80;96.70;;;;;;5109572;28;20560;-76
2021/12/25 11:14:44;;;;;;;24.88;22.30;;;13.80;96.70;;;;;;5109498;28;20100;-75
2021/12/25 11:17:24;;;;;;;27.17;22.20;;;13.80;96.70;;;;;;5097324;28;20041;-76
2021/12/25 11:20:00;;;;;;;24.00;19.15;;;13.80;96.70;;;;;;5099520;28;20377;-76
2021/12/25 11:22:46;;;;;;;26.08;21.77;;;13.80;96.70;;;;;;5114558;28;20385;-76
2021/12/25 11:25:16;;;;;;;21.40;18.90;;;13.80;96.70;;;;;;5099312;27;20062;-76
2021/12/25 11:27:44;;;;;;;19.58;15.40;;;13.80;96.70;;;;;;5117770;27;20508;-77
2021/12/25 11:30:14;;;;;;;15.73;12.32;;;13.80;96.70;;;;;;5115433;27;20091;-76
2021/12/25 11:32:42;;;;;;;17.30;13.50;;;13.70;96.70;;;;;;5120341;27;20061;-77
2021/12/25 11:35:15;;;;;;;17.35;12.63;;;13.70;96.70;;;;;;5113672;27;20543;-76
2021/12/25 11:37:44;;;;;;;17.25;13.80;;;13.60;96.70;;;;;;5119852;27;20054;-76
2021/12/25 11:40:15;;;;;;;16.20;13.48;;;13.60;96.70;;;;;;5111775;27;20529;-76
2021/12/25 11:42:46;;;;;;;18.90;12.43;;;13.60;96.70;;;;;;5118403;27;20575;-75
2021/12/25 11:45:17;;;;;;;16.70;12.35;;;13.60;96.70;;;;;;5118427;27;20146;-74
2021/12/25 11:47:51;;;;;;;17.75;14.75;;;13.60;96.70;;;;;;5098117;27;20530;-75
2021/12/25 11:50:24;;;;;;;21.98;16.48;;;13.60;96.70;;;;;;5099847;27;20053;-75
2021/12/25 11:53:07;;;;;;;20.13;16.35;;;13.60;96.70;;;;;;5096185;27;20075;-76
2021/12/25 11:58:20;;;;;;;18.50;15.45;;;13.60;96.70;;;;;;5112234;27;20204;-76
2021/12/25 12:00:50;;;;;;;19.50;16.55;;;13.70;96.70;;;;;;5117558;27;20128;-75
2021/12/25 12:04:02;;;;;;;18.58;16.60;;;13.70;96.70;;;;;;5101518;27;20051;-75
2021/12/25 12:07:06;;;;;;;18.80;15.20;;;13.80;96.70;;;;;;5105123;27;20300;-75
2021/12/25 12:09:56;;;;;;;18.30;14.38;;;13.80;96.70;;;;;;5117957;27;20600;-76
2021/12/25 12:12:46;;;;;;;15.13;13.57;;;13.80;96.70;;;;;;5114525;27;20534;-76
2021/12/25 12:15:45;;;;;;;16.17;12.70;;;13.80;96.70;;;;;;5113967;27;20421;-75
2021/12/25 12:18:43;;;;;;;11.00;9.90;;;13.70;96.70;;;;;;5111837;27;20054;-75
2021/12/25 12:21:35;;;;;;;13.75;11.13;;;13.70;96.70;;;;;;5094595;27;20438;-76
2021/12/25 12:27:05;;;;;;;14.10;11.90;;;13.70;96.70;;;;;;5097528;27;20047;-74
2021/12/25 12:29:49;;;;;;;13.15;11.48;;;13.80;96.70;;;;;;5101346;27;20035;-75
2021/12/25 12:32:37;;;;;;;12.07;10.23;;;13.90;96.70;;;;;;5099217;27;20559;-75
2021/12/25 12:35:26;;;;;;;15.40;10.75;;;13.90;96.70;;;;;;5112229;27;20474;-75
2021/12/25 12:38:10;;;;;;;11.30;10.05;;;13.90;96.70;;;;;;5110247;27;20135;-75
2021/12/25 12:40:40;;;;;;;12.75;11.23;;;13.90;96.70;;;;;;5107847;27;20117;-76
2021/12/25 12:43:13;;;;;;;13.82;11.25;;;13.80;96.70;;;;;;5115828;27;20618;-75
2021/12/25 12:45:53;;;;;;;15.25;12.80;;;13.80;96.70;;;;;;5113813;27;20044;-75
2021/12/25 12:48:23;;;;;;;14.73;11.75;;;13.80;96.70;;;;;;5116589;27;20525;-76
2021/12/25 12:50:53;;;;;;;19.27;13.43;;;13.80;96.70;;;;;;5113482;27;20044;-73
2021/12/25 12:53:24;;;;;;;13.15;10.82;;;13.80;96.70;;;;;;5098616;27;20050;-73
2021/12/25 12:56:04;;;;;;;15.40;12.90;;;13.80;96.70;;;;;;5114803;27;20043;-73
2021/12/25 12:58:33;;;;;;;14.02;11.27;;;13.80;96.70;;;;;;5109532;27;20194;-76
2021/12/25 13:01:10;;;;;;;15.80;12.13;;;13.80;96.70;;;;;;5112586;27;20449;-77
2021/12/25 13:03:39;;;;;;;14.23;11.07;;;13.80;96.70;;;;;;5116117;27;20618;-77
2021/12/25 13:06:14;;;;;;;15.63;11.05;;;13.70;96.70;;;;;;5111449;27;20083;-75
2021/12/25 13:08:45;;;;;;;11.55;9.48;;;13.70;96.70;;;;;;5106137;27;20127;-74
2021/12/25 13:11:32;;;;;;;10.20;8.23;;;13.70;96.70;;;;;;5116386;27;20036;-73
2021/12/25 13:14:04;;;;;;;16.13;13.25;;;13.70;96.70;;;;;;5111298;27;20032;-73
2021/12/25 13:16:37;;;;;;;11.68;10.48;;;13.70;96.70;;;;;;5113033;27;20052;-73
2021/12/25 13:19:07;;;;;;;12.25;9.82;;;13.70;96.70;;;;;;5098912;27;20043;-74
2021/12/25 13:21:37;;;;;;;12.27;10.15;;;13.70;96.70;;;;;;5112396;27;20574;-74
2021/12/25 13:24:07;;;;;;;14.70;11.57;;;13.70;96.70;;;;;;5109417;27;20409;-73
2021/12/25 13:26:42;;;;;;;14.65;12.43;;;13.80;96.70;;;;;;5108278;27;20052;-74
2021/12/25 13:29:14;;;;;;;18.10;15.00;;;13.70;96.70;;;;;;5110375;27;20615;-74
2021/12/25 13:31:44;;;;;;;16.38;13.60;;;13.70;96.70;;;;;;5114606;27;20038;-74
2021/12/25 13:34:15;;;;;;;14.68;13.18;;;13.70;96.70;;;;;;5108725;27;20059;-74
2021/12/25 13:36:47;;;;;;;16.15;12.80;;;13.70;96.70;;;;;;5112350;27;20054;-74
2021/12/25 13:39:18;;;;;;;15.88;11.73;;;13.80;96.70;;;;;;5112040;27;20043;-74
2021/12/25 13:41:52;;;;;;;14.25;12.52;;;13.80;96.70;;;;;;5111819;27;20054;-74
2021/12/25 13:44:24;;;;;;;15.27;12.07;;;13.80;96.70;;;;;;5112053;27;20039;-74
2021/12/25 13:46:55;;;;;;;16.40;12.02;;;13.80;96.70;;;;;;5110800;27;20492;-75
2021/12/25 13:49:29;;;;;;;14.40;12.95;;;13.80;96.70;;;;;;5112042;27;20043;-75
2021/12/25 13:51:59;;;;;;;12.00;10.07;;;13.80;96.70;;;;;;5114207;27;20047;-75
2021/12/25 13:54:28;;;;;;;11.88;9.45;;;13.80;96.70;;;;;;5109419;27;20051;-75
2021/12/25 13:56:59;;;;;;;10.88;9.40;;;13.80;96.70;;;;;;5114461;27;20043;-75
2021/12/25 13:59:27;;;;;;;10.10;8.50;;;13.70;96.70;;;;;;5110473;27;20061;-75
2021/12/25 14:01:59;;;;;;;14.43;11.98;;;13.70;96.70;;;;;;5111168;27;20047;-75
2021/12/25 14:04:28;;;;;;;13.45;11.48;;;13.70;96.70;;;;;;5117129;27;20446;-75
2021/12/25 14:06:57;;;;;;;14.75;11.15;;;13.70;96.70;;;;;;5109567;27;20504;-75
2021/12/25 14:09:25;;;;;;;14.32;11.82;;;13.70;96.70;;;;;;5095646;27;20075;-76
2021/12/25 14:11:56;;;;;;;13.38;11.82;;;13.70;96.70;;;;;;5107370;27;20067;-76
2021/12/25 14:14:28;;;;;;;16.10;14.35;;;13.80;96.70;;;;;;5113563;27;20131;-76
2021/12/25 14:16:58;;;;;;;14.95;11.25;;;13.70;96.70;;;;;;5113885;27;20045;-76
2021/12/25 14:19:28;;;;;;;11.52;10.02;;;13.70;96.70;;;;;;5110154;27;20142;-76
2021/12/25 14:22:01;;;;;;;13.02;10.95;;;13.70;96.70;;;;;;5089914;27;20047;-76
2021/12/25 14:24:39;;;;;;;13.30;10.82;;;13.60;96.70;;;;;;5119284;27;20039;-77
2021/12/25 14:27:10;;;;;;;14.57;10.88;;;13.60;96.70;;;;;;5108284;27;20615;-76
2021/12/25 14:29:40;;;;;;;12.45;9.93;;;13.60;96.70;;;;;;5113747;27;20043;-75